createdAt,value
2022-08-19T00:01:53.826Z,1002.596
2022-08-19T00:06:55.941Z,1002.61
2022-08-19T00:11:58.694Z,1002.577
2022-08-19T00:17:01.393Z,1002.434
2022-08-19T00:22:03.940Z,1002.56
2022-08-19T00:27:25.489Z,1002.566
2022-08-19T00:32:10.822Z,1002.596
2022-08-19T00:37:11.782Z,1002.688
2022-08-19T00:42:15.773Z,1002.507
2022-08-19T00:47:17.146Z,1002.442
2022-08-19T00:52:20.340Z,1002.335
2022-08-19T00:57:23.029Z,1002.29
2022-08-19T01:02:25.636Z,1002.388
2022-08-19T01:07:28.194Z,1002.29
2022-08-19T01:12:30.985Z,1002.517
2022-08-19T01:17:33.469Z,1002.52
2022-08-19T01:22:36.047Z,1002.542
2022-08-19T01:27:43.038Z,1002.672
2022-08-19T01:37:44.192Z,1002.709
2022-08-19T01:47:51.573Z,1002.714
2022-08-19T01:52:59.146Z,1002.835
2022-08-19T01:57:55.040Z,1003.062
2022-08-19T02:03:00.752Z,1003.115
2022-08-19T02:08:03.401Z,1002.885
2022-08-19T02:18:08.828Z,1002.489
2022-08-19T02:23:13.401Z,1002.229
2022-08-19T02:28:17.987Z,1001.935
2022-08-19T02:33:17.244Z,1001.645
2022-08-19T02:38:20.050Z,1001.449
2022-08-19T02:43:22.653Z,1001.469
2022-08-19T02:48:28.702Z,1001.463
2022-08-19T02:53:31.254Z,1001.439
2022-08-19T03:08:39.609Z,1001.76
2022-08-19T03:13:42.521Z,1001.747
2022-08-19T03:18:45.217Z,1001.773
2022-08-19T03:23:48.155Z,1001.787
2022-08-19T03:28:51.448Z,1001.669
2022-08-19T03:33:53.303Z,1001.625
2022-08-19T03:43:58.608Z,1001.571
2022-08-19T03:59:06.229Z,1001.635
2022-08-19T04:09:11.264Z,1001.587
2022-08-19T04:19:16.674Z,1001.775
2022-08-19T04:24:19.431Z,1001.861
2022-08-19T04:34:24.828Z,1001.958
2022-08-19T04:39:27.442Z,1001.96
2022-08-19T04:44:30.467Z,1001.923
2022-08-19T04:54:38.076Z,1001.962
2022-08-19T04:59:38.458Z,1001.881
2022-08-19T05:04:41.234Z,1001.911
2022-08-19T05:09:55.849Z,1001.817
2022-08-19T05:14:46.885Z,1001.738
2022-08-19T05:25:11.500Z,1001.61
2022-08-19T05:29:54.587Z,1001.649
2022-08-19T05:45:58.896Z,1001.693
2022-08-19T05:51:01.430Z,1001.771
2022-08-19T05:56:03.866Z,1001.622
2022-08-19T06:01:06.493Z,1001.821
2022-08-19T06:06:09.030Z,1001.845
2022-08-19T06:11:11.608Z,1001.96
2022-08-19T06:16:17.044Z,1001.895
2022-08-19T06:21:19.898Z,1001.705
2022-08-19T06:26:22.356Z,1001.691
2022-08-19T06:36:27.678Z,1001.952
2022-08-19T06:41:37.092Z,1002.064
2022-08-19T06:46:38.273Z,1002.16
2022-08-19T06:51:42.391Z,1002.246
2022-08-19T07:01:46.757Z,1002.376
2022-08-19T07:06:55.211Z,1002.28
2022-08-19T07:11:52.318Z,1002.161
2022-08-19T07:16:55.070Z,1002.053
2022-08-19T07:21:57.827Z,1002.112
2022-08-19T07:27:00.776Z,1002.209
2022-08-19T07:32:03.174Z,1002.444
2022-08-19T07:37:05.745Z,1002.492
2022-08-19T07:42:08.606Z,1002.633
2022-08-19T07:47:48.595Z,1002.678
2022-08-19T07:52:19.636Z,1002.645
2022-08-19T07:57:22.501Z,1002.718
2022-08-19T08:02:25.251Z,1002.824
2022-08-19T08:12:34.452Z,1002.826
2022-08-19T08:17:48.988Z,1002.948
2022-08-19T08:27:38.191Z,1003.049
2022-08-19T08:32:46.709Z,1003.087
2022-08-19T08:37:51.079Z,1003.099
2022-08-19T08:42:52.656Z,1003.093
2022-08-19T08:53:00.977Z,1003.136
2022-08-19T08:58:03.500Z,1003.134
2022-08-19T09:03:06.145Z,1003.237
2022-08-19T09:08:09.067Z,1003.303
2022-08-19T09:13:11.680Z,1003.277
2022-08-19T09:18:15.205Z,1003.27
2022-08-19T09:23:17.693Z,1003.18
2022-08-19T09:28:22.265Z,1003.081
2022-08-19T09:33:23.114Z,1003.089
2022-08-19T09:38:25.855Z,1003.028
2022-08-19T09:43:33.444Z,1003.021
2022-08-19T09:48:31.226Z,1002.947
2022-08-19T09:53:34.153Z,1002.932
2022-08-19T09:58:36.225Z,1002.994
2022-08-19T10:03:38.760Z,1003.09
2022-08-19T10:08:41.946Z,1003.125
2022-08-19T10:13:47.412Z,1003.157
2022-08-19T10:18:50.562Z,1003.027
2022-08-19T10:23:53.511Z,1002.99
2022-08-19T10:29:05.128Z,1003.017
2022-08-19T10:34:09.978Z,1002.933
2022-08-19T10:44:13.891Z,1002.868
2022-08-19T10:49:15.777Z,1002.969
2022-08-19T10:54:29.517Z,1002.981
2022-08-19T10:59:20.858Z,1003.002
2022-08-19T11:04:23.305Z,1003.043
2022-08-19T11:09:33.245Z,1003.108
2022-08-19T11:14:29.090Z,1003.1
2022-08-19T11:19:31.913Z,1003.135
2022-08-19T11:24:34.511Z,1003.219
2022-08-19T11:29:37.333Z,1003.228
2022-08-19T11:39:42.610Z,1003.151
2022-08-19T11:44:45.469Z,1003.252
2022-08-19T11:49:48.214Z,1003.268
2022-08-19T11:54:54.105Z,1003.293
2022-08-19T11:59:56.985Z,1003.351
2022-08-19T12:04:59.912Z,1003.419
2022-08-19T12:15:07.705Z,1003.495
2022-08-19T12:20:10.344Z,1003.539
2022-08-19T12:25:13.084Z,1003.532
2022-08-19T12:35:18.257Z,1003.552
2022-08-19T12:40:20.840Z,1003.611
2022-08-19T12:45:23.718Z,1003.609
2022-08-19T12:55:32.013Z,1003.516
2022-08-19T13:00:34.825Z,1003.477
2022-08-19T13:05:37.692Z,1003.466
2022-08-19T13:10:40.657Z,1003.524
2022-08-19T13:15:43.301Z,1003.618
2022-08-19T13:20:46.803Z,1003.655
2022-08-19T13:25:48.735Z,1003.644
2022-08-19T13:30:54.380Z,1003.566
2022-08-19T13:35:57.297Z,1003.617
2022-08-19T13:41:00.905Z,1003.543
2022-08-19T13:46:02.770Z,1003.556
2022-08-19T13:51:05.450Z,1003.523
2022-08-19T13:56:08.066Z,1003.499
2022-08-19T14:01:10.809Z,1003.456
2022-08-19T14:06:13.463Z,1003.409
2022-08-19T14:16:18.684Z,1003.443
2022-08-19T14:26:26.950Z,1003.468
2022-08-19T14:36:32.630Z,1003.536
2022-08-19T14:41:34.597Z,1003.529
2022-08-19T14:46:37.230Z,1003.481
2022-08-19T14:51:39.688Z,1003.524
2022-08-19T14:56:42.237Z,1003.536
2022-08-19T15:01:45.108Z,1003.584
2022-08-19T15:06:47.689Z,1003.699
2022-08-19T15:11:51.127Z,1003.798
2022-08-19T15:16:54.018Z,1003.859
2022-08-19T15:26:59.205Z,1003.998
2022-08-19T15:32:01.654Z,1004.019
2022-08-19T15:37:04.437Z,1004.136
2022-08-19T15:52:12.470Z,1004.168
2022-08-19T16:07:22.407Z,1004.079
2022-08-19T16:12:23.550Z,1003.965
2022-08-19T16:17:26.478Z,1003.977
2022-08-19T16:22:29.069Z,1003.939
2022-08-19T16:27:31.791Z,1003.967
2022-08-19T16:32:34.820Z,1004.118
2022-08-19T16:37:37.574Z,1004.118
2022-08-19T16:42:40.146Z,1004.179
2022-08-19T16:47:45.530Z,1004.234
2022-08-19T16:52:48.257Z,1004.224
2022-08-19T16:57:51.153Z,1004.256
2022-08-19T17:02:56.723Z,1004.299
2022-08-19T17:13:01.665Z,1004.194
2022-08-19T17:18:04.064Z,1004.101
2022-08-19T17:23:06.663Z,1004.119
2022-08-19T17:28:09.309Z,1004.205
2022-08-19T17:33:11.913Z,1004.196
2022-08-19T17:38:14.736Z,1004.203
2022-08-19T17:43:17.631Z,1004.198
2022-08-19T17:48:20.326Z,1004.268
2022-08-19T17:53:23.014Z,1004.353
2022-08-19T17:58:25.708Z,1004.421
2022-08-19T18:03:28.401Z,1004.479
2022-08-19T18:08:31.249Z,1004.517
2022-08-19T18:13:33.824Z,1004.563
2022-08-19T18:18:36.302Z,1004.604
2022-08-19T18:23:41.600Z,1004.684
2022-08-19T18:28:43.874Z,1004.598
2022-08-19T18:38:47.895Z,1004.725
2022-08-19T18:43:50.601Z,1004.79
2022-08-19T18:48:53.497Z,1004.851
2022-08-19T18:58:59.235Z,1004.917
2022-08-19T19:09:05.028Z,1005.029
2022-08-19T19:14:07.952Z,1005.169
2022-08-19T19:19:10.424Z,1005.243
2022-08-19T19:24:15.837Z,1005.307
2022-08-19T19:29:18.721Z,1005.289
2022-08-19T19:34:29.414Z,1005.31
2022-08-19T19:39:29.691Z,1005.316
2022-08-19T19:44:29.845Z,1005.407
2022-08-19T19:49:29.705Z,1005.523
2022-08-19T19:54:32.398Z,1005.519
2022-08-19T19:59:35.053Z,1005.406
2022-08-19T20:04:37.672Z,1005.492
2022-08-19T20:09:58.630Z,1005.505
2022-08-19T20:14:43.055Z,1005.407
2022-08-19T20:19:45.668Z,1005.526
2022-08-19T20:24:48.205Z,1005.543
2022-08-19T20:29:50.951Z,1005.482
2022-08-19T20:34:53.525Z,1005.317
2022-08-19T20:39:56.177Z,1005.314
2022-08-19T20:44:58.803Z,1005.336
2022-08-19T20:55:04.264Z,1005.408
2022-08-19T21:10:12.240Z,1004.963
2022-08-19T21:15:15.153Z,1005.087
2022-08-19T21:20:17.821Z,1005.086
2022-08-19T21:25:20.422Z,1005.163
2022-08-19T21:35:25.862Z,1005.657
2022-08-19T21:40:28.527Z,1005.628
2022-08-19T21:45:31.373Z,1005.532
2022-08-19T21:50:34.145Z,1005.518
2022-08-19T21:55:36.854Z,1005.574
2022-08-19T22:00:39.371Z,1005.529
2022-08-19T22:05:41.896Z,1005.436
2022-08-19T22:10:44.465Z,1005.483
2022-08-19T22:20:49.505Z,1005.332
2022-08-19T22:25:52.099Z,1005.336
2022-08-19T22:30:54.873Z,1005.243
2022-08-19T22:41:00.060Z,1005.338
2022-08-19T22:46:02.654Z,1005.399
2022-08-19T22:51:08.183Z,1005.355
2022-08-19T23:01:14.777Z,1005.214
2022-08-19T23:11:18.954Z,1005.241
2022-08-19T23:16:21.717Z,1005.253
2022-08-19T23:26:26.814Z,1005.259
2022-08-19T23:36:38.146Z,1005.433
2022-08-19T23:41:40.815Z,1005.321
2022-08-19T23:46:54.808Z,1005.253
2022-08-19T23:51:46.276Z,1005.191
2022-08-19T23:56:48.785Z,1005.098
